createdAt,value
2022-11-26T00:02:25.911Z,3.67
2022-11-26T00:04:55.679Z,4.75
2022-11-26T00:07:26.932Z,3.75
2022-11-26T00:09:57.305Z,3.55
2022-11-26T00:12:32.142Z,4.22
2022-11-26T00:15:22.866Z,3.03
2022-11-26T00:17:52.359Z,4.00
2022-11-26T00:20:23.598Z,5.22
2022-11-26T00:22:54.060Z,4.95
2022-11-26T00:25:25.437Z,4.35
2022-11-26T00:27:55.649Z,3.97
2022-11-26T00:30:26.733Z,4.00
2022-11-26T00:32:58.868Z,5.03
2022-11-26T00:35:27.072Z,4.97
2022-11-26T00:37:57.087Z,4.87
2022-11-26T00:40:27.640Z,3.08
2022-11-26T00:43:01.211Z,4.70
2022-11-26T00:45:32.044Z,3.67
2022-11-26T00:48:02.181Z,6.00
2022-11-26T00:50:44.079Z,4.57
2022-11-26T00:53:19.636Z,5.95
2022-11-26T00:55:50.892Z,4.40
2022-11-26T00:58:29.250Z,4.45
2022-11-26T01:00:59.373Z,6.05
2022-11-26T01:03:27.827Z,4.15
2022-11-26T01:05:59.133Z,4.50
2022-11-26T01:08:32.933Z,6.15
2022-11-26T01:11:02.456Z,4.70
2022-11-26T01:13:32.019Z,2.85
2022-11-26T01:16:01.626Z,5.82
2022-11-26T01:18:33.417Z,5.90
2022-11-26T01:21:01.693Z,5.97
2022-11-26T01:23:29.594Z,4.32
2022-11-26T01:25:57.346Z,5.62
2022-11-26T01:28:25.515Z,5.47
2022-11-26T01:30:53.318Z,5.95
2022-11-26T01:33:23.971Z,4.10
2022-11-26T01:35:52.213Z,4.10
2022-11-26T01:38:19.997Z,6.05
2022-11-26T01:41:17.309Z,5.20
2022-11-26T01:43:48.186Z,6.05
2022-11-26T01:46:22.680Z,5.30
2022-11-26T01:48:51.127Z,7.50
2022-11-26T01:51:27.594Z,5.80
2022-11-26T01:54:00.623Z,5.97
2022-11-26T01:56:41.057Z,3.70
2022-11-26T01:59:26.449Z,6.53
2022-11-26T02:01:57.789Z,4.65
2022-11-26T02:04:37.640Z,6.22
2022-11-26T02:07:06.321Z,5.20
2022-11-26T02:09:34.564Z,6.47
2022-11-26T02:12:05.684Z,6.62
2022-11-26T02:14:39.052Z,4.55
2022-11-26T02:17:32.461Z,5.15
2022-11-26T02:20:24.799Z,5.00
2022-11-26T02:23:08.151Z,5.28
2022-11-26T02:25:54.785Z,6.20
2022-11-26T02:29:04.240Z,6.07
2022-11-26T02:31:41.190Z,5.95
2022-11-26T02:34:15.636Z,5.93
2022-11-26T02:37:02.269Z,4.93
2022-11-26T02:39:31.301Z,3.50
2022-11-26T02:42:02.598Z,4.18
2022-11-26T02:44:49.494Z,6.85
2022-11-26T02:47:19.636Z,5.07
2022-11-26T02:49:50.868Z,7.20
2022-11-26T02:52:20.476Z,9.13
2022-11-26T02:54:49.929Z,6.18
2022-11-26T02:57:21.608Z,4.43
2022-11-26T02:59:49.866Z,6.18
2022-11-26T03:02:28.543Z,6.75
2022-11-26T03:05:00.673Z,5.20
2022-11-26T03:07:32.926Z,5.32
2022-11-26T03:10:02.560Z,5.53
2022-11-26T03:12:33.880Z,4.22
2022-11-26T03:15:02.167Z,4.22
2022-11-26T03:17:31.586Z,3.33
2022-11-26T03:19:59.501Z,3.97
2022-11-26T03:22:27.766Z,4.03
2022-11-26T03:24:55.601Z,7.85
2022-11-26T03:27:23.540Z,6.22
2022-11-26T03:29:51.694Z,4.55
2022-11-26T03:32:19.515Z,3.40
2022-11-26T03:34:47.348Z,5.30
2022-11-26T03:37:15.681Z,5.03
2022-11-26T03:39:43.817Z,5.40
2022-11-26T03:42:14.726Z,4.00
2022-11-26T03:44:42.904Z,5.00
2022-11-26T03:47:10.823Z,7.03
2022-11-26T03:49:38.739Z,5.47
2022-11-26T03:52:07.200Z,3.35
2022-11-26T03:54:35.179Z,7.55
2022-11-26T03:57:02.944Z,4.70
2022-11-26T03:59:31.296Z,5.15
2022-11-26T04:02:02.112Z,4.20
2022-11-26T04:04:33.081Z,4.45
2022-11-26T04:07:01.564Z,4.60
2022-11-26T04:09:32.574Z,4.65
2022-11-26T04:12:00.833Z,5.43
2022-11-26T04:14:28.680Z,5.05
2022-11-26T04:16:56.598Z,6.22
2022-11-26T04:19:24.830Z,5.25
2022-11-26T04:21:52.770Z,5.50
2022-11-26T04:24:20.568Z,6.28
2022-11-26T04:26:48.813Z,4.60
2022-11-26T04:29:16.511Z,5.00
2022-11-26T04:31:47.424Z,5.47
2022-11-26T04:34:18.863Z,6.00
2022-11-26T04:36:49.835Z,5.97
2022-11-26T04:39:18.054Z,5.85
2022-11-26T04:41:46.019Z,4.93
2022-11-26T04:44:13.852Z,4.18
2022-11-26T04:46:42.067Z,5.50
2022-11-26T04:49:09.862Z,5.50
2022-11-26T04:51:37.654Z,7.30
2022-11-26T04:54:11.429Z,9.65
2022-11-26T04:56:41.538Z,9.02
2022-11-26T04:59:09.783Z,7.20
2022-11-26T05:01:37.780Z,4.80
2022-11-26T05:04:08.526Z,4.53
2022-11-26T05:06:36.694Z,4.80
2022-11-26T05:09:04.688Z,4.40
2022-11-26T05:11:32.377Z,5.03
2022-11-26T05:14:00.649Z,3.87
2022-11-26T05:16:28.481Z,5.70
2022-11-26T05:18:56.672Z,5.07
2022-11-26T05:21:24.987Z,4.07
2022-11-26T05:23:52.646Z,5.07
2022-11-26T05:26:20.627Z,4.93
2022-11-26T05:28:48.671Z,3.92
2022-11-26T05:31:16.568Z,4.05
2022-11-26T05:33:44.386Z,4.28
2022-11-26T05:36:12.576Z,4.40
2022-11-26T05:38:40.386Z,5.78
2022-11-26T05:41:08.357Z,4.40
2022-11-26T05:43:36.491Z,4.43
2022-11-26T05:46:09.264Z,4.03
2022-11-26T05:48:37.413Z,3.20
2022-11-26T05:51:05.346Z,6.50
2022-11-26T05:53:33.237Z,4.87
2022-11-26T05:56:01.430Z,3.75
2022-11-26T05:58:32.460Z,4.25
2022-11-26T06:01:00.614Z,3.45
2022-11-26T06:03:31.643Z,5.47
2022-11-26T06:05:59.467Z,4.25
2022-11-26T06:08:27.646Z,4.70
2022-11-26T06:10:58.877Z,5.18
2022-11-26T06:13:26.629Z,4.82
2022-11-26T06:15:54.474Z,3.85
2022-11-26T06:18:22.673Z,3.55
2022-11-26T06:20:50.444Z,4.75
2022-11-26T06:23:18.283Z,3.80
2022-11-26T06:25:46.501Z,2.92
2022-11-26T06:28:14.373Z,3.33
2022-11-26T06:30:45.200Z,4.55
2022-11-26T06:33:13.925Z,3.97
2022-11-26T06:35:41.772Z,3.78
2022-11-26T06:38:12.621Z,4.82
2022-11-26T06:40:40.798Z,4.70
2022-11-26T06:43:08.774Z,4.55
2022-11-26T06:45:37.129Z,4.60
2022-11-26T06:48:05.335Z,3.25
2022-11-26T06:50:33.697Z,4.15
2022-11-26T06:53:01.476Z,3.67
2022-11-26T06:55:32.544Z,3.30
2022-11-26T06:58:00.351Z,5.37
2022-11-26T07:00:28.158Z,4.70
2022-11-26T07:02:56.378Z,4.30
2022-11-26T07:05:24.139Z,4.93
2022-11-26T07:07:51.893Z,4.93
2022-11-26T07:10:20.564Z,3.67
2022-11-26T07:12:48.403Z,6.25
2022-11-26T07:15:16.276Z,5.82
2022-11-26T07:17:44.487Z,4.10
2022-11-26T07:20:12.939Z,5.15
2022-11-26T07:22:40.846Z,4.57
2022-11-26T07:25:12.560Z,4.93
2022-11-26T07:27:41.424Z,4.07
2022-11-26T07:30:10.503Z,4.90
2022-11-26T07:32:38.859Z,5.45
2022-11-26T07:35:07.918Z,5.20
2022-11-26T07:37:36.361Z,6.85
2022-11-26T07:40:06.743Z,4.65
2022-11-26T07:42:35.066Z,4.75
2022-11-26T07:45:04.858Z,3.35
2022-11-26T07:47:32.706Z,5.25
2022-11-26T07:50:00.840Z,4.03
2022-11-26T07:52:31.012Z,5.22
2022-11-26T07:54:58.808Z,4.57
2022-11-26T07:57:26.795Z,5.57
2022-11-26T07:59:54.916Z,4.80
2022-11-26T08:02:22.605Z,4.20
2022-11-26T08:04:50.981Z,5.05
2022-11-26T08:07:24.633Z,4.97
2022-11-26T08:09:54.177Z,3.30
2022-11-26T08:12:22.067Z,5.10
2022-11-26T08:14:49.909Z,5.15
2022-11-26T08:17:18.151Z,3.65
2022-11-26T08:19:45.890Z,5.22
2022-11-26T08:22:13.654Z,4.53
2022-11-26T08:24:41.865Z,3.72
2022-11-26T08:27:09.607Z,4.68
2022-11-26T08:29:40.227Z,3.40
2022-11-26T08:32:08.431Z,6.62
2022-11-26T08:34:36.452Z,5.12
2022-11-26T08:39:49.578Z,4.60
2022-11-26T08:42:17.324Z,5.37
2022-11-26T08:44:44.949Z,5.95
2022-11-26T08:47:12.970Z,5.32
2022-11-26T08:49:40.633Z,4.62
2022-11-26T08:52:08.367Z,5.00
2022-11-26T08:54:38.754Z,6.72
2022-11-26T08:57:09.884Z,4.50
2022-11-26T08:59:38.162Z,4.87
2022-11-26T09:04:51.294Z,4.80
2022-11-26T09:07:19.161Z,5.10
2022-11-26T09:09:46.876Z,7.07
2022-11-26T09:12:15.016Z,5.00
2022-11-26T09:14:43.097Z,4.05
2022-11-26T09:17:12.380Z,6.05
2022-11-26T09:19:40.593Z,4.60
2022-11-26T09:22:08.336Z,3.33
2022-11-26T09:24:36.564Z,8.15
2022-11-26T09:27:08.038Z,5.87
2022-11-26T09:29:36.506Z,6.15
2022-11-26T09:34:53.182Z,5.97
2022-11-26T09:37:21.612Z,4.20
2022-11-26T09:39:50.111Z,8.70
2022-11-26T09:42:39.930Z,5.90
2022-11-26T09:45:33.535Z,5.87
2022-11-26T09:48:04.050Z,7.00
2022-11-26T09:50:38.804Z,8.38
2022-11-26T09:53:19.465Z,5.15
2022-11-26T09:55:50.675Z,6.00
2022-11-26T09:58:31.874Z,4.62
2022-11-26T10:01:01.592Z,5.00
2022-11-26T10:03:32.556Z,6.40
2022-11-26T10:06:15.986Z,5.62
2022-11-26T10:09:03.043Z,4.55
2022-11-26T10:12:25.516Z,4.97
2022-11-26T10:15:18.463Z,5.75
2022-11-26T10:17:55.137Z,7.12
2022-11-26T10:20:41.785Z,7.22
2022-11-26T10:23:12.358Z,6.47
2022-11-26T10:25:58.728Z,6.95
2022-11-26T10:28:37.940Z,5.95
2022-11-26T10:31:23.874Z,5.93
2022-11-26T10:33:59.169Z,8.27
2022-11-26T10:36:39.757Z,4.78
2022-11-26T10:39:12.901Z,6.85
2022-11-26T10:41:41.105Z,7.53
2022-11-26T10:44:30.592Z,5.55
2022-11-26T10:46:59.714Z,7.55
2022-11-26T10:49:29.830Z,7.00
2022-11-26T10:52:04.225Z,7.15
2022-11-26T10:54:38.764Z,7.85
2022-11-26T10:57:16.061Z,7.22
2022-11-26T10:59:52.146Z,6.22
2022-11-26T11:02:28.853Z,6.87
2022-11-26T11:04:59.001Z,7.60
2022-11-26T11:07:38.954Z,6.35
2022-11-26T11:10:18.030Z,7.80
2022-11-26T11:13:12.619Z,6.87
2022-11-26T11:15:41.833Z,9.40
2022-11-26T11:18:12.999Z,8.18
2022-11-26T11:20:43.581Z,6.18
2022-11-26T11:23:11.667Z,6.00
2022-11-26T11:25:42.255Z,9.13
2022-11-26T11:28:12.895Z,14.60
2022-11-26T11:30:47.698Z,9.15
2022-11-26T11:33:15.350Z,10.45
2022-11-26T11:35:43.622Z,9.75
2022-11-26T11:38:57.538Z,9.60
2022-11-26T11:41:27.506Z,11.27
2022-11-26T11:44:07.205Z,8.70
2022-11-26T11:47:14.890Z,9.32
2022-11-26T11:50:06.953Z,10.23
2022-11-26T11:52:42.211Z,8.43
2022-11-26T11:55:46.275Z,9.38
2022-11-26T11:58:24.397Z,9.25
2022-11-26T12:01:20.401Z,10.30
2022-11-26T12:04:37.002Z,13.10
2022-11-26T12:07:35.705Z,10.32
2022-11-26T12:10:27.131Z,15.95
2022-11-26T12:13:00.679Z,8.23
2022-11-26T12:15:44.140Z,10.55
2022-11-26T12:18:48.043Z,13.73
2022-11-26T12:21:19.723Z,15.88
2022-11-26T12:23:50.056Z,9.70
2022-11-26T12:26:25.399Z,13.45
2022-11-26T12:28:57.030Z,10.05
2022-11-26T12:31:53.013Z,10.30
2022-11-26T12:34:33.983Z,11.90
2022-11-26T12:37:32.632Z,10.15
2022-11-26T12:40:16.678Z,10.65
2022-11-26T12:43:04.950Z,17.37
2022-11-26T12:46:00.913Z,12.68
2022-11-26T12:48:35.283Z,13.02
2022-11-26T12:51:18.563Z,8.32
2022-11-26T12:54:46.912Z,12.48
2022-11-26T12:57:20.190Z,10.45
2022-11-26T13:00:06.624Z,13.80
2022-11-26T13:02:46.681Z,6.87
2022-11-26T13:05:30.725Z,11.52
2022-11-26T13:08:13.789Z,14.80
2022-11-26T13:11:10.051Z,11.60
2022-11-26T13:13:43.847Z,12.05
2022-11-26T13:16:35.034Z,9.13
2022-11-26T13:19:25.153Z,11.70
2022-11-26T13:22:17.861Z,11.75
2022-11-26T13:24:59.038Z,15.85
2022-11-26T13:27:29.929Z,13.18
2022-11-26T13:30:21.549Z,9.80
2022-11-26T13:33:19.858Z,9.02
2022-11-26T13:36:24.645Z,12.43
2022-11-26T13:39:11.659Z,9.60
2022-11-26T13:42:00.252Z,10.02
2022-11-26T13:44:43.776Z,9.85
2022-11-26T13:50:05.936Z,10.57
2022-11-26T13:52:57.530Z,7.70
2022-11-26T13:55:30.920Z,9.68
2022-11-26T13:58:05.905Z,12.02
2022-11-26T14:00:35.986Z,9.05
2022-11-26T14:03:09.744Z,10.40
2022-11-26T14:05:49.742Z,7.75
2022-11-26T14:08:43.563Z,11.05
2022-11-26T14:14:26.647Z,10.18
2022-11-26T14:17:19.384Z,8.02
2022-11-26T14:19:52.351Z,8.38
2022-11-26T14:22:20.321Z,10.38
2022-11-26T14:24:51.126Z,9.57
2022-11-26T14:27:22.363Z,7.45
2022-11-26T14:29:58.255Z,12.32
2022-11-26T14:32:30.110Z,12.02
2022-11-26T14:34:59.305Z,7.22
2022-11-26T14:37:31.752Z,10.02
2022-11-26T14:40:00.179Z,8.80
2022-11-26T14:42:31.306Z,12.85
2022-11-26T14:45:20.688Z,10.65
2022-11-26T14:47:51.740Z,12.55
2022-11-26T14:50:24.043Z,11.12
2022-11-26T14:53:00.002Z,11.20
2022-11-26T14:55:31.103Z,12.45
2022-11-26T14:58:14.466Z,14.10
2022-11-26T15:00:42.792Z,11.85
2022-11-26T15:03:40.131Z,10.52
2022-11-26T15:06:46.683Z,10.90
2022-11-26T15:09:19.351Z,10.48
2022-11-26T15:12:12.806Z,11.00
2022-11-26T15:15:14.582Z,10.57
2022-11-26T15:17:50.672Z,13.57
2022-11-26T15:20:21.912Z,12.80
2022-11-26T15:22:55.437Z,14.15
2022-11-26T15:25:32.295Z,13.27
2022-11-26T15:28:04.529Z,11.23
2022-11-26T15:30:39.329Z,13.32
2022-11-26T15:33:11.210Z,13.32
2022-11-26T15:35:40.338Z,16.00
2022-11-26T15:38:15.828Z,11.32
2022-11-26T15:40:49.103Z,11.20
2022-11-26T15:43:42.021Z,10.10
2022-11-26T15:46:30.880Z,12.52
2022-11-26T15:49:19.124Z,13.57
2022-11-26T15:52:01.222Z,12.90
2022-11-26T15:55:04.425Z,11.85
2022-11-26T15:57:40.572Z,13.85
2022-11-26T16:00:28.333Z,13.50
2022-11-26T16:02:56.555Z,10.43
2022-11-26T16:05:29.059Z,10.55
2022-11-26T16:10:31.839Z,10.38
2022-11-26T16:13:20.686Z,9.68
2022-11-26T16:16:02.052Z,9.88
2022-11-26T16:18:43.893Z,11.48
2022-11-26T16:21:19.466Z,9.80
2022-11-26T16:24:13.338Z,11.38
2022-11-26T16:27:06.403Z,9.73
2022-11-26T16:29:38.907Z,14.45
2022-11-26T16:32:06.682Z,11.12
2022-11-26T16:34:35.031Z,11.02
2022-11-26T16:37:24.621Z,9.98
2022-11-26T16:40:04.946Z,9.25
2022-11-26T16:42:33.143Z,14.27
2022-11-26T16:45:04.154Z,13.98
2022-11-26T16:47:36.402Z,10.27
2022-11-26T16:50:05.759Z,11.35
2022-11-26T16:52:39.380Z,11.02
2022-11-26T16:55:12.517Z,12.63
2022-11-26T16:57:47.016Z,13.77
2022-11-26T17:00:18.191Z,8.60
2022-11-26T17:02:46.612Z,12.45
2022-11-26T17:05:15.138Z,15.07
2022-11-26T17:07:56.439Z,15.32
2022-11-26T17:10:27.168Z,13.32
2022-11-26T17:12:56.075Z,9.80
2022-11-26T17:15:24.087Z,9.73
2022-11-26T17:17:54.899Z,14.65
2022-11-26T17:20:31.156Z,13.23
2022-11-26T17:22:59.118Z,10.65
2022-11-26T17:25:27.391Z,15.35
2022-11-26T17:27:55.454Z,13.15
2022-11-26T17:30:24.819Z,11.52
2022-11-26T17:32:53.135Z,19.60
2022-11-26T17:35:21.022Z,14.52
2022-11-26T17:37:48.966Z,10.07
2022-11-26T17:40:22.643Z,14.80
2022-11-26T17:42:54.960Z,14.65
2022-11-26T17:45:23.525Z,17.23
2022-11-26T17:47:51.457Z,15.93
2022-11-26T17:50:25.357Z,15.90
2022-11-26T17:52:57.131Z,15.75
2022-11-26T17:55:27.965Z,14.32
2022-11-26T17:57:57.036Z,14.73
2022-11-26T18:00:29.819Z,14.02
2022-11-26T18:03:01.280Z,15.93
2022-11-26T18:05:29.370Z,13.20
2022-11-26T18:07:57.334Z,10.38
2022-11-26T18:10:25.631Z,12.55
2022-11-26T18:12:54.565Z,9.68
2022-11-26T18:15:25.175Z,11.30
2022-11-26T18:17:55.640Z,14.40
2022-11-26T18:20:28.927Z,22.70
2022-11-26T18:22:59.962Z,17.73
2022-11-26T18:25:29.848Z,16.25
2022-11-26T18:27:58.056Z,12.13
2022-11-26T18:30:25.972Z,15.48
2022-11-26T18:32:53.798Z,12.77
2022-11-26T18:35:25.276Z,15.98
2022-11-26T18:37:53.071Z,12.52
2022-11-26T18:40:24.420Z,11.82
2022-11-26T18:42:53.115Z,14.18
2022-11-26T18:45:21.317Z,12.07
2022-11-26T18:47:49.269Z,13.30
2022-11-26T18:50:17.222Z,12.30
2022-11-26T18:52:45.448Z,11.73
2022-11-26T18:55:16.794Z,13.65
2022-11-26T18:57:45.037Z,12.20
2022-11-26T19:00:14.818Z,11.60
2022-11-26T19:02:42.691Z,13.75
2022-11-26T19:05:11.040Z,14.27
2022-11-26T19:07:38.914Z,13.40
2022-11-26T19:10:27.055Z,13.65
2022-11-26T19:12:55.228Z,12.65
2022-11-26T19:15:25.770Z,11.80
2022-11-26T19:17:53.560Z,9.85
2022-11-26T19:20:22.082Z,14.68
2022-11-26T19:22:49.972Z,13.23
2022-11-26T19:25:17.788Z,12.90
2022-11-26T19:27:46.008Z,11.93
2022-11-26T19:30:16.439Z,10.73
2022-11-26T19:32:44.171Z,11.00
2022-11-26T19:35:14.183Z,12.70
2022-11-26T19:37:41.947Z,10.35
2022-11-26T19:40:10.168Z,14.70
2022-11-26T19:42:39.834Z,14.80
2022-11-26T19:45:08.233Z,12.73
2022-11-26T19:47:55.930Z,10.77
2022-11-26T19:50:24.045Z,10.68
2022-11-26T19:52:51.865Z,11.63
2022-11-26T19:55:19.552Z,13.38
2022-11-26T19:57:47.721Z,8.68
2022-11-26T20:00:15.758Z,11.07
2022-11-26T20:02:44.410Z,9.93
2022-11-26T20:05:12.978Z,10.38
2022-11-26T20:07:40.731Z,11.68
2022-11-26T20:10:09.408Z,10.18
2022-11-26T20:12:37.202Z,10.23
2022-11-26T20:15:05.334Z,8.15
2022-11-26T20:17:33.473Z,9.70
2022-11-26T20:20:01.286Z,8.77
2022-11-26T20:22:34.619Z,9.90
2022-11-26T20:25:02.647Z,6.28
2022-11-26T20:27:30.582Z,9.75
2022-11-26T20:29:58.283Z,10.40
2022-11-26T20:32:26.506Z,11.35
2022-11-26T20:34:55.455Z,9.52
2022-11-26T20:37:23.341Z,10.18
2022-11-26T20:39:51.468Z,7.80
2022-11-26T20:42:21.549Z,11.48
2022-11-26T20:44:49.472Z,10.48
2022-11-26T20:47:17.636Z,13.18
2022-11-26T20:49:45.483Z,12.18
2022-11-26T20:52:13.428Z,13.10
2022-11-26T20:54:41.879Z,9.43
2022-11-26T20:57:12.494Z,11.38
2022-11-26T20:59:40.522Z,9.55
2022-11-26T21:02:12.388Z,10.13
2022-11-26T21:04:40.085Z,11.38
2022-11-26T21:07:08.269Z,10.60
2022-11-26T21:09:36.085Z,8.70
2022-11-26T21:12:03.971Z,9.50
2022-11-26T21:14:32.205Z,9.55
2022-11-26T21:17:00.132Z,11.98
2022-11-26T21:19:28.081Z,9.52
2022-11-26T21:21:56.451Z,9.43
2022-11-26T21:24:24.787Z,10.73
2022-11-26T21:26:52.592Z,11.25
2022-11-26T21:29:21.838Z,10.10
2022-11-26T21:31:49.630Z,11.63
2022-11-26T21:34:17.624Z,10.45
2022-11-26T21:36:45.881Z,11.02
2022-11-26T21:39:15.780Z,9.48
2022-11-26T21:41:43.655Z,11.02
2022-11-26T21:44:14.630Z,11.82
2022-11-26T21:46:42.479Z,8.07
2022-11-26T21:49:10.319Z,11.20
2022-11-26T21:51:38.523Z,10.00
2022-11-26T21:54:06.500Z,11.75
2022-11-26T21:56:34.378Z,11.88
2022-11-26T21:59:02.898Z,14.23
2022-11-26T22:01:36.296Z,10.00
2022-11-26T22:04:16.943Z,11.27
2022-11-26T22:06:46.926Z,13.93
2022-11-26T22:09:16.746Z,9.23
2022-11-26T22:11:45.995Z,10.02
2022-11-26T22:14:16.112Z,9.45
2022-11-26T22:16:44.557Z,9.25
2022-11-26T22:19:12.463Z,11.55
2022-11-26T22:21:43.333Z,7.72
2022-11-26T22:24:16.297Z,11.15
2022-11-26T22:26:45.122Z,9.50
2022-11-26T22:29:17.727Z,8.63
2022-11-26T22:31:45.736Z,10.57
2022-11-26T22:34:16.695Z,9.07
2022-11-26T22:36:45.248Z,9.60
2022-11-26T22:39:17.793Z,7.65
2022-11-26T22:41:46.912Z,10.70
2022-11-26T22:44:16.348Z,11.18
2022-11-26T22:46:45.261Z,10.35
2022-11-26T22:49:15.985Z,8.60
2022-11-26T22:51:47.714Z,10.40
2022-11-26T22:54:18.260Z,9.60
2022-11-26T22:56:47.235Z,9.65
2022-11-26T22:59:15.213Z,8.90
2022-11-26T23:01:43.172Z,9.63
2022-11-26T23:04:12.000Z,9.18
2022-11-26T23:06:40.482Z,9.45
2022-11-26T23:09:13.745Z,14.45
2022-11-26T23:11:43.329Z,11.05
2022-11-26T23:14:12.341Z,10.73
2022-11-26T23:16:42.078Z,10.30
2022-11-26T23:19:13.545Z,10.48
2022-11-26T23:21:43.127Z,11.85
2022-11-26T23:24:11.676Z,18.55
2022-11-26T23:26:42.810Z,13.43
2022-11-26T23:29:12.699Z,12.45
2022-11-26T23:31:43.478Z,12.35
2022-11-26T23:34:11.752Z,10.70
2022-11-26T23:36:40.055Z,13.68
2022-11-26T23:39:10.945Z,8.80
2022-11-26T23:41:39.384Z,13.05
2022-11-26T23:44:07.253Z,9.65
2022-11-26T23:46:35.748Z,9.32
2022-11-26T23:49:04.432Z,10.80
2022-11-26T23:51:33.381Z,10.13
2022-11-26T23:54:01.447Z,12.85
2022-11-26T23:56:32.891Z,8.80
2022-11-26T23:59:03.193Z,11.10
